Halsted, Texas
Current Conditions -  °F | °C
As of 4:30 AM on Friday 19 Dec 2014 (Local Time) from K3T5 Reporting Station
Thunderstorm Thunderstorm  
Wind Chill: 53°   Ceiling: 800
Heat Index: 53°   Visibility: 5mi
Dew Point: 53°   Wind: 7mph
Humidity: 97%   Direction: 20°NNE
Pressure: 30"   Gusts: NA
Location:  29.8569°N, 96.9311°W
Report Text: K3T5 191030Z AUTO 02006KT 5SM TS BR OVC008 12/11 A3000 RMK AO2 LTG DSNT ALQS T01190114
Loading
Personal Weather Stations






























Interactive Weather Map New forecast layout! Learn more

10-Day Weather Forecast

Advertisements
Track Severe Weather on mobile